Time;durP1;ratioP1;P1;durP2;ratioP2;P2;SDS_P1;SDS_P2;PMS_P1;PMS_P2;Temp;Humidity;BMP_temperature;BMP_pressure;BME280_temperature;BME280_humidity;BME280_pressure;Samples;Min_cycle;Max_cycle;Signal;HPM_P1;HPM_P2
2023/06/04 00:02:23;;;;;;;29.57;13.33;;;;;;;14.54;100.00;98782.09;4908591;29;20048;-94
2023/06/04 00:04:49;;;;;;;27.85;12.20;;;;;;;14.34;100.00;98750.84;4908541;29;20326;-94
2023/06/04 00:07:15;;;;;;;24.35;11.40;;;;;;;14.37;100.00;98747.16;4908510;29;20044;-96
2023/06/04 00:09:41;;;;;;;27.23;12.25;;;;;;;14.31;100.00;98742.06;4908326;29;20051;-95
2023/06/04 00:12:07;;;;;;;24.30;11.90;;;;;;;14.44;100.00;98782.56;4908755;29;20044;-93
2023/06/04 00:14:33;;;;;;;28.50;12.00;;;;;;;14.28;100.00;98760.94;4908349;29;20055;-94
2023/06/04 00:17:01;;;;;;;27.85;11.52;;;;;;;14.33;100.00;98761.59;4908011;29;20048;-94
2023/06/04 00:19:27;;;;;;;27.23;11.55;;;;;;;14.21;100.00;98749.63;4908450;29;20112;-94
2023/06/04 00:21:52;;;;;;;25.27;10.82;;;;;;;14.46;100.00;98769.97;4908497;29;20052;-94
2023/06/04 00:24:18;;;;;;;25.50;12.00;;;;;;;14.27;100.00;98743.13;4908156;29;20639;-95
2023/06/04 00:26:44;;;;;;;25.27;11.60;;;;;;;14.18;100.00;98737.25;4907805;29;20075;-95
2023/06/04 00:29:10;;;;;;;25.42;12.63;;;;;;;14.31;100.00;98760.78;4908358;29;20048;-94
2023/06/04 00:31:36;;;;;;;30.85;12.40;;;;;;;14.13;100.00;98744.59;4908454;29;20083;-95
2023/06/04 00:34:07;;;;;;;23.70;12.00;;;;;;;14.11;100.00;98749.13;4907688;29;20483;-96
2023/06/04 00:36:34;;;;;;;26.20;11.85;;;;;;;14.16;100.00;98752.50;4907520;29;20044;-94
2023/06/04 00:39:00;;;;;;;31.45;12.43;;;;;;;14.35;100.00;98767.75;4907475;29;20079;-94
2023/06/04 00:41:26;;;;;;;24.02;12.55;;;;;;;14.18;100.00;98757.75;4907626;29;20055;-94
2023/06/04 00:44:01;;;;;;;24.60;11.73;;;;;;;14.12;100.00;98742.88;4907468;29;20048;-94
2023/06/04 00:46:28;;;;;;;28.38;12.77;;;;;;;14.05;100.00;98737.81;4907286;29;20044;-94
2023/06/04 00:48:55;;;;;;;29.02;12.30;;;;;;;14.05;100.00;98727.13;4907603;29;20100;-93
2023/06/04 00:51:23;;;;;;;29.98;13.35;;;;;;;14.03;100.00;98729.88;4906813;29;20048;-95
2023/06/04 00:53:49;;;;;;;28.02;12.68;;;;;;;14.09;100.00;98737.63;4908137;29;20131;-93
2023/06/04 00:56:16;;;;;;;26.17;11.38;;;;;;;14.04;100.00;98736.09;4907505;29;20043;-94
2023/06/04 00:58:42;;;;;;;26.10;12.05;;;;;;;14.05;100.00;98736.03;4907392;29;20051;-96
2023/06/04 01:01:20;;;;;;;28.70;11.77;;;;;;;14.16;100.00;98743.59;4907872;29;20052;-95
2023/06/04 01:03:49;;;;;;;29.27;12.98;;;;;;;14.32;100.00;98758.06;4907961;29;20476;-94
2023/06/04 01:06:22;;;;;;;29.85;13.60;;;;;;;14.18;100.00;98731.03;4908936;29;20048;-95
2023/06/04 01:08:54;;;;;;;30.98;13.98;;;;;;;14.32;100.00;98744.69;4907036;29;20051;-95
2023/06/04 01:11:31;;;;;;;38.47;13.95;;;;;;;14.12;100.00;98724.16;4914141;29;20095;-95
2023/06/04 01:13:57;;;;;;;30.50;13.95;;;;;;;14.13;100.00;98725.88;4904437;29;20372;-96
2023/06/04 01:16:25;;;;;;;28.63;12.65;;;;;;;14.08;100.00;98714.50;4904317;29;20062;-94
2023/06/04 01:18:51;;;;;;;31.52;13.80;;;;;;;14.23;100.00;98749.56;4905125;29;20067;-94
2023/06/04 01:21:18;;;;;;;35.28;14.05;;;;;;;14.08;100.00;98730.56;4889646;29;20511;-95
2023/06/04 01:23:49;;;;;;;32.03;13.57;;;;;;;14.07;100.00;98744.84;4887080;29;20056;-94
2023/06/04 01:26:16;;;;;;;29.63;12.20;;;;;;;14.01;100.00;98728.19;4885395;29;20056;-95
2023/06/04 01:28:45;;;;;;;33.70;15.05;;;;;;;14.06;100.00;98744.94;4891798;29;20086;-94
2023/06/04 01:31:12;;;;;;;50.78;15.18;;;;;;;14.05;100.00;98736.03;4886561;29;20048;-95
2023/06/04 01:33:39;;;;;;;92.85;14.80;;;;;;;13.89;100.00;98745.63;4885075;29;20104;-95
2023/06/04 01:36:06;;;;;;;32.58;13.50;;;;;;;13.72;100.00;98722.25;4892983;29;20043;-94
2023/06/04 01:38:32;;;;;;;31.38;14.20;;;;;;;13.75;100.00;98736.38;4923247;29;20044;-94
2023/06/04 01:41:01;;;;;;;29.73;13.10;;;;;;;13.90;100.00;98763.38;4923912;29;20051;-95
2023/06/04 01:43:28;;;;;;;30.52;13.98;;;;;;;13.89;100.00;98758.97;4923431;29;20095;-94
2023/06/04 01:45:56;;;;;;;30.05;13.02;;;;;;;13.85;100.00;98750.22;4922001;29;20052;-94
2023/06/04 01:48:22;;;;;;;28.65;12.23;;;;;;;13.92;100.00;98750.81;4922686;29;20044;-94
2023/06/04 01:50:48;;;;;;;33.13;14.30;;;;;;;13.97;100.00;98751.53;4922996;29;20135;-95
2023/06/04 01:53:14;;;;;;;27.92;12.68;;;;;;;13.89;100.00;98740.28;4922224;29;20470;-95
2023/06/04 01:55:40;;;;;;;29.35;13.60;;;;;;;14.00;100.00;98755.88;4915107;29;20068;-95
2023/06/04 01:58:07;;;;;;;36.58;14.38;;;;;;;13.85;100.00;98746.66;4904572;29;20044;-95
2023/06/04 02:00:34;;;;;;;37.22;14.50;;;;;;;13.90;100.00;98736.66;4904110;29;20052;-94
2023/06/04 02:03:00;;;;;;;32.72;13.98;;;;;;;14.06;100.00;98753.81;4904934;29;20040;-94
2023/06/04 02:05:26;;;;;;;33.92;13.88;;;;;;;14.01;100.00;98741.56;4904376;29;20100;-95
2023/06/04 02:07:52;;;;;;;31.60;13.63;;;;;;;14.10;100.00;98739.38;4905452;29;20048;-95
2023/06/04 02:10:19;;;;;;;34.28;14.65;;;;;;;14.26;100.00;98757.47;4905122;29;20055;-93
2023/06/04 02:12:56;;;;;;;33.85;14.35;;;;;;;14.20;100.00;98741.66;4905080;29;20507;-94
2023/06/04 02:15:23;;;;;;;35.20;14.02;;;;;;;14.32;100.00;98751.84;4905466;29;20047;-94
2023/06/04 02:17:50;;;;;;;36.97;15.35;;;;;;;14.33;100.00;98756.25;4904274;29;20071;-93
2023/06/04 02:20:17;;;;;;;30.63;12.77;;;;;;;14.30;100.00;98732.31;4905045;29;20052;-95
2023/06/04 02:22:43;;;;;;;33.50;13.88;;;;;;;14.35;100.00;98760.59;4889090;29;20044;-94
2023/06/04 02:25:09;;;;;;;34.85;13.63;;;;;;;14.23;100.00;98728.19;4891959;29;20040;-94
2023/06/04 02:27:35;;;;;;;35.15;13.68;;;;;;;14.16;100.00;98725.75;4899132;29;20444;-96
2023/06/04 02:30:01;;;;;;;32.00;13.25;;;;;;;14.10;100.00;98741.19;4920179;29;20044;-95
2023/06/04 02:32:28;;;;;;;35.88;13.65;;;;;;;14.22;100.00;98755.84;4919546;29;20080;-94
2023/06/04 02:34:56;;;;;;;36.60;13.65;;;;;;;14.20;100.00;98741.66;4896367;29;20108;-93
2023/06/04 02:37:22;;;;;;;40.25;13.77;;;;;;;14.04;100.00;98744.13;4910788;29;20040;-95
2023/06/04 02:39:48;;;;;;;29.88;12.45;;;;;;;13.87;100.00;98724.28;4905864;29;20059;-94
2023/06/04 02:42:14;;;;;;;34.03;13.05;;;;;;;14.06;100.00;98753.81;4914050;29;20051;-94
2023/06/04 02:44:39;;;;;;;50.13;15.60;;;;;;;14.02;100.00;98754.88;4900008;29;20083;-96
2023/06/04 02:47:06;;;;;;;42.13;14.23;;;;;;;13.88;100.00;98741.19;4887858;29;20080;-95
2023/06/04 02:49:32;;;;;;;39.63;14.15;;;;;;;14.05;100.00;98760.09;4888236;29;20052;-94
2023/06/04 02:51:59;;;;;;;40.25;14.27;;;;;;;14.07;100.00;98752.88;4888865;29;20503;-94
2023/06/04 02:54:25;;;;;;;39.50;14.93;;;;;;;14.13;100.00;98755.28;4889536;29;20135;-95
2023/06/04 02:56:52;;;;;;;42.63;14.65;;;;;;;14.01;100.00;98722.84;4889193;29;20478;-94
2023/06/04 02:59:17;;;;;;;37.55;14.13;;;;;;;14.20;100.00;98752.34;4888889;29;20121;-96
2023/06/04 03:01:43;;;;;;;39.75;14.70;;;;;;;14.18;100.00;98737.25;4889743;29;20076;-95
2023/06/04 03:04:09;;;;;;;37.05;14.02;;;;;;;14.33;100.00;98754.47;4889070;29;20055;-94
2023/06/04 03:06:38;;;;;;;35.78;13.65;;;;;;;14.29;100.00;98734.13;4888383;29;20060;-95
2023/06/04 03:09:06;;;;;;;41.72;15.30;;;;;;;14.49;100.00;98753.81;4888907;29;20041;-94
2023/06/04 03:11:33;;;;;;;43.70;14.82;;;;;;;14.64;100.00;98773.69;4887935;29;20053;-94
2023/06/04 03:13:58;;;;;;;51.20;16.00;;;;;;;14.57;100.00;98746.31;4888203;29;20200;-93
2023/06/04 03:16:24;;;;;;;44.33;16.10;;;;;;;14.49;100.00;98727.06;4887995;29;20144;-94
2023/06/04 03:18:50;;;;;;;44.95;15.80;;;;;;;14.70;100.00;98763.63;4887432;29;20037;-93
2023/06/04 03:21:16;;;;;;;35.75;14.48;;;;;;;14.73;100.00;98750.09;4887470;29;20424;-94
2023/06/04 03:23:43;;;;;;;39.67;13.70;;;;;;;14.70;100.00;98760.94;4887898;29;20052;-94
2023/06/04 03:26:12;;;;;;;39.58;15.15;;;;;;;14.47;100.00;98731.59;4887722;29;20049;-94
2023/06/04 03:28:38;;;;;;;37.95;14.00;;;;;;;14.38;100.00;98719.50;4888654;29;20048;-94
2023/06/04 03:31:04;;;;;;;51.53;15.15;;;;;;;14.43;100.00;98724.63;4887880;29;20052;-95
2023/06/04 03:33:30;;;;;;;37.75;13.68;;;;;;;14.53;100.00;98742.00;4887660;29;20495;-94
2023/06/04 03:35:58;;;;;;;38.97;14.65;;;;;;;14.39;100.00;98726.56;4887824;29;20044;-94
2023/06/04 03:38:24;;;;;;;37.15;13.73;;;;;;;14.28;100.00;98750.25;4887681;29;20075;-94
2023/06/04 03:40:52;;;;;;;37.47;12.40;;;;;;;14.26;100.00;98757.47;4886633;29;20115;-96
2023/06/04 03:43:19;;;;;;;78.00;14.38;;;;;;;14.21;100.00;98754.13;4887436;29;20048;-93
2023/06/04 03:45:45;;;;;;;46.85;13.52;;;;;;;13.92;100.00;98721.41;4888127;29;20507;-94
2023/06/04 03:48:11;;;;;;;45.22;13.93;;;;;;;13.99;100.00;98728.28;4889333;29;20051;-95
2023/06/04 03:50:37;;;;;;;111.70;15.55;;;;;;;13.96;100.00;98749.78;4889417;29;20049;-95
2023/06/04 03:53:07;;;;;;;41.08;12.93;;;;;;;13.87;100.00;98728.78;4890301;29;20041;-95
2023/06/04 03:55:33;;;;;;;71.85;14.45;;;;;;;13.97;100.00;98730.13;4889403;29;20080;-94
2023/06/04 03:57:59;;;;;;;39.60;12.98;;;;;;;13.87;100.00;98728.78;4889587;29;20136;-95
2023/06/04 04:00:27;;;;;;;91.80;14.88;;;;;;;13.97;100.00;98743.50;4887800;29;20077;-94
2023/06/04 04:02:53;;;;;;;69.72;14.80;;;;;;;13.89;100.00;98729.56;4888044;29;20060;-93
2023/06/04 04:05:18;;;;;;;76.30;13.85;;;;;;;13.82;100.00;98714.75;4887690;29;20503;-95
2023/06/04 04:07:44;;;;;;;107.30;15.13;;;;;;;13.80;100.00;98716.59;4919168;29;20050;-95
2023/06/04 04:10:10;;;;;;;52.10;14.18;;;;;;;13.88;100.00;98731.38;4925154;29;20081;-95
2023/06/04 04:12:36;;;;;;;50.63;13.90;;;;;;;14.10;100.00;98763.44;4925142;29;20151;-94
2023/06/04 04:15:02;;;;;;;96.88;15.73;;;;;;;14.09;100.00;98751.00;4924369;29;20071;-94
2023/06/04 04:17:30;;;;;;;126.97;14.93;;;;;;;13.90;100.00;98724.19;4924013;29;20039;-96
2023/06/04 04:19:55;;;;;;;81.20;14.60;;;;;;;13.85;100.00;98722.63;4926662;29;20065;-95
2023/06/04 04:22:21;;;;;;;69.60;14.60;;;;;;;13.97;100.00;98724.78;4924938;29;20058;-94
2023/06/04 04:24:47;;;;;;;182.68;19.15;;;;;;;13.92;100.00;98729.44;4924877;29;20399;-92
2023/06/04 04:27:15;;;;;;;100.05;16.10;;;;;;;13.92;100.00;98745.47;4925905;29;20043;-94
2023/06/04 04:29:42;;;;;;;155.13;18.55;;;;;;;13.91;100.00;98727.72;4926054;29;20076;-95
2023/06/04 04:32:10;;;;;;;91.35;15.93;;;;;;;14.06;100.00;98735.09;4925623;29;20051;-94
2023/06/04 04:34:40;;;;;;;128.85;16.27;;;;;;;13.80;100.00;98722.81;4924992;29;20047;-94
2023/06/04 04:37:09;;;;;;;80.25;15.82;;;;;;;14.13;100.00;98752.59;4924375;29;20044;-95
2023/06/04 04:39:35;;;;;;;228.48;21.13;;;;;;;14.10;100.00;98752.75;4924243;29;20048;-94
2023/06/04 04:42:02;;;;;;;89.50;14.55;;;;;;;14.04;100.00;98744.13;4924798;29;20070;-94
2023/06/04 04:44:34;;;;;;;35.42;13.27;;;;;;;14.07;100.00;98727.94;4925188;29;20047;-96
2023/06/04 04:47:03;;;;;;;43.15;13.10;;;;;;;14.23;100.00;98720.16;4930971;29;20414;-95
2023/06/04 04:49:29;;;;;;;70.20;15.80;;;;;;;14.24;100.00;98751.31;4927278;29;20147;-95
2023/06/04 04:51:57;;;;;;;81.03;16.27;;;;;;;14.03;100.00;98718.28;4928587;29;20122;-95
2023/06/04 04:54:23;;;;;;;56.85;14.93;;;;;;;14.10;100.00;98734.03;4929678;29;20139;-95
2023/06/04 04:56:49;;;;;;;63.78;13.98;;;;;;;14.13;100.00;98739.25;4929814;29;20071;-95
2023/06/04 04:59:16;;;;;;;198.55;19.05;;;;;;;14.14;100.00;98756.19;4930031;29;20040;-95
2023/06/04 05:01:42;;;;;;;139.07;19.50;;;;;;;13.86;100.00;98737.75;4925923;29;20047;-93
2023/06/04 05:04:07;;;;;;;241.38;22.98;;;;;;;13.82;100.00;98728.09;4915068;29;20148;-94
2023/06/04 05:06:34;;;;;;;159.40;19.08;;;;;;;13.69;100.00;98725.91;4908608;29;20052;-95
2023/06/04 05:09:01;;;;;;;102.55;16.42;;;;;;;13.82;100.00;98738.78;4910886;29;20048;-96
2023/06/04 05:11:27;;;;;;;94.85;16.90;;;;;;;13.85;100.00;98731.50;4910377;29;20079;-93
2023/06/04 05:13:53;;;;;;;121.93;17.00;;;;;;;14.05;100.00;98740.50;4909373;29;20055;-95
2023/06/04 05:16:20;;;;;;;91.53;15.50;;;;;;;14.15;100.00;98739.19;4910681;29;20112;-96
2023/06/04 05:18:46;;;;;;;42.67;12.82;;;;;;;14.25;100.00;98750.34;4910719;29;20112;-93
2023/06/04 05:21:13;;;;;;;114.53;15.73;;;;;;;14.34;100.00;98744.63;4907479;29;20048;-94
2023/06/04 05:23:39;;;;;;;96.47;15.93;;;;;;;14.29;100.00;98757.31;4906454;29;20406;-95
2023/06/04 05:26:06;;;;;;;66.97;14.65;;;;;;;14.27;100.00;98737.78;4908678;29;20410;-95
2023/06/04 05:28:33;;;;;;;104.88;15.35;;;;;;;14.36;100.00;98727.56;4909735;29;20045;-93
2023/06/04 05:31:00;;;;;;;154.40;18.15;;;;;;;14.23;100.00;98718.34;4907610;29;20048;-94
2023/06/04 05:33:26;;;;;;;224.23;20.50;;;;;;;14.18;100.00;98718.53;4906791;29;20050;-94
2023/06/04 05:35:52;;;;;;;76.72;14.57;;;;;;;14.43;100.00;98730.00;4906757;29;20139;-94
2023/06/04 05:38:19;;;;;;;259.08;22.05;;;;;;;14.36;100.00;98718.69;4905946;29;20056;-95
2023/06/04 05:40:45;;;;;;;100.93;16.02;;;;;;;14.51;100.00;98723.38;4905329;29;20051;-94
2023/06/04 05:43:13;;;;;;;37.70;12.93;;;;;;;14.51;100.00;98725.19;4904449;29;20068;-94
2023/06/04 05:45:39;;;;;;;33.10;13.18;;;;;;;14.88;100.00;98761.91;4904397;29;20079;-94
2023/06/04 05:48:06;;;;;;;58.25;13.35;;;;;;;14.80;100.00;98731.94;4905026;29;20050;-95
2023/06/04 05:50:32;;;;;;;118.97;16.48;;;;;;;14.75;100.00;98758.91;4906079;29;20040;-93
2023/06/04 05:52:58;;;;;;;111.30;17.27;;;;;;;14.60;100.00;98762.28;4906390;29;20052;-95
2023/06/04 05:55:24;;;;;;;144.90;18.13;;;;;;;14.36;100.00;98751.66;4909993;29;20052;-95
2023/06/04 05:57:51;;;;;;;156.65;19.55;;;;;;;14.31;100.00;98752.78;4910951;29;20044;-95
2023/06/04 06:00:20;;;;;;;84.57;15.70;;;;;;;14.37;100.00;98756.06;4911939;29;20082;-94
2023/06/04 06:02:48;;;;;;;75.83;14.50;;;;;;;14.49;100.00;98751.13;4910285;29;20150;-95
2023/06/04 06:05:15;;;;;;;213.05;20.83;;;;;;;14.60;100.00;98764.94;4909350;29;20055;-96
2023/06/04 06:07:41;;;;;;;80.68;15.50;;;;;;;14.72;100.00;98795.66;4909983;29;20048;-95
2023/06/04 06:10:08;;;;;;;95.45;16.33;;;;;;;14.64;100.00;98811.16;4909922;29;20148;-94
2023/06/04 06:12:34;;;;;;;38.50;14.80;;;;;;;14.78;100.00;98782.00;4911709;29;20511;-94
2023/06/04 06:15:00;;;;;;;113.75;16.73;;;;;;;14.78;100.00;98795.38;4908249;29;20052;-95
2023/06/04 06:17:28;;;;;;;85.45;14.60;;;;;;;15.00;100.00;98822.94;4907594;29;20502;-95
2023/06/04 06:19:55;;;;;;;31.00;12.88;;;;;;;15.08;100.00;98808.34;4908107;29;20499;-95
2023/06/04 06:22:21;;;;;;;32.35;13.30;;;;;;;15.31;100.00;98802.84;4906430;29;20044;-92
2023/06/04 06:24:48;;;;;;;29.70;12.18;;;;;;;15.49;100.00;98785.03;4906339;29;20052;-95
2023/06/04 06:27:15;;;;;;;36.08;12.93;;;;;;;15.74;100.00;98808.91;4907374;29;20475;-94
2023/06/04 06:29:42;;;;;;;29.70;12.30;;;;;;;15.72;100.00;98783.97;4906496;29;20047;-95
2023/06/04 06:32:08;;;;;;;39.63;15.75;;;;;;;15.93;100.00;98805.31;4906729;29;20055;-96
2023/06/04 06:34:35;;;;;;;31.02;12.90;;;;;;;16.11;100.00;98819.66;4907224;29;20518;-93
2023/06/04 06:37:01;;;;;;;31.45;12.70;;;;;;;16.10;100.00;98810.75;4905952;29;20055;-95
2023/06/04 06:39:27;;;;;;;31.70;13.55;;;;;;;16.29;100.00;98828.63;4907282;29;20044;-94
2023/06/04 06:41:53;;;;;;;30.70;14.40;;;;;;;16.39;100.00;98808.41;4907262;29;20044;-94
2023/06/04 06:44:18;;;;;;;27.67;13.00;;;;;;;16.63;100.00;98822.41;4906377;29;20062;-94
2023/06/04 06:46:44;;;;;;;28.30;13.02;;;;;;;16.62;100.00;98820.69;4908203;29;20516;-95
2023/06/04 06:49:10;;;;;;;29.73;12.90;;;;;;;16.76;100.00;98823.56;4908858;29;20143;-95
2023/06/04 06:51:38;;;;;;;31.52;13.80;;;;;;;16.88;100.00;98831.94;4911034;29;20048;-96
2023/06/04 06:54:04;;;;;;;28.88;12.27;;;;;;;17.03;100.00;98842.75;4912230;29;20139;-95
2023/06/04 06:56:33;;;;;;;36.30;14.05;;;;;;;17.14;100.00;98844.03;4908689;29;20088;-95
2023/06/04 06:58:59;;;;;;;38.33;15.75;;;;;;;17.25;100.00;98847.00;4907407;29;20052;-95
2023/06/04 07:01:25;;;;;;;42.78;16.50;;;;;;;17.38;100.00;98841.84;4905727;29;20048;-94
2023/06/04 07:03:53;;;;;;;48.30;20.52;;;;;;;17.54;100.00;98864.25;4898695;29;20483;-93
2023/06/04 07:06:19;;;;;;;41.60;17.38;;;;;;;17.53;100.00;98845.53;4898314;29;20057;-92
2023/06/04 07:08:47;;;;;;;44.50;19.02;;;;;;;17.51;100.00;98832.16;4907692;29;20056;-94
2023/06/04 07:11:13;;;;;;;;;;;;;;;17.77;100.00;98865.69;4907601;29;20051;-94
2023/06/04 07:13:39;;;;;;;40.08;14.32;;;;;;;17.56;100.00;98829.22;4914412;29;19927;-94
2023/06/04 07:16:06;;;;;;;36.38;16.17;;;;;;;17.65;100.00;98815.25;4906691;29;20044;-94
2023/06/04 07:18:35;;;;;;;42.78;17.23;;;;;;;18.01;100.00;98860.78;4907947;29;20044;-94
2023/06/04 07:21:01;;;;;;;41.60;17.05;;;;;;;17.83;100.00;98864.53;4924424;29;20122;-94
2023/06/04 07:23:27;;;;;;;39.80;19.65;;;;;;;17.89;100.00;98841.78;4920231;29;20090;-94
2023/06/04 07:25:55;;;;;;;51.30;22.25;;;;;;;17.84;100.00;98845.59;4905061;29;20059;-94
2023/06/04 07:28:20;;;;;;;45.88;22.38;;;;;;;18.06;100.00;98857.84;4904972;29;20083;-94
2023/06/04 07:30:46;;;;;;;51.75;22.00;;;;;;;17.97;100.00;98829.63;4910850;29;20056;-94
2023/06/04 07:33:12;;;;;;;59.75;23.45;;;;;;;18.19;100.00;98858.88;4917329;29;20071;-94
2023/06/04 07:35:38;;;;;;;57.72;25.40;;;;;;;18.14;100.00;98852.91;4905172;29;20056;-94
2023/06/04 07:38:04;;;;;;;54.63;25.05;;;;;;;18.48;100.00;98868.00;4914675;29;20517;-93
2023/06/04 07:40:30;;;;;;;54.42;24.85;;;;;;;18.44;100.00;98842.19;4903389;29;20074;-92
2023/06/04 07:42:57;;;;;;;55.83;25.55;;;;;;;18.72;100.00;98856.75;4899863;29;20049;-92
2023/06/04 07:45:23;;;;;;;50.70;24.48;;;;;;;19.07;100.00;98837.63;4901134;29;20118;-93
2023/06/04 07:47:49;;;;;;;55.47;23.67;;;;;;;19.42;100.00;98848.94;4900412;29;20052;-94
2023/06/04 07:50:15;;;;;;;56.85;23.98;;;;;;;19.62;100.00;98838.72;4901273;29;20107;-94
2023/06/04 07:52:41;;;;;;;48.05;22.45;;;;;;;20.08;100.00;98854.72;4912190;29;20044;-94
2023/06/04 07:55:08;;;;;;;49.00;22.95;;;;;;;19.75;100.00;98855.91;4901081;29;20095;-94
2023/06/04 07:57:34;;;;;;;46.33;22.30;;;;;;;19.83;100.00;98856.28;4897728;29;20037;-95
2023/06/04 08:00:04;;;;;;;43.08;20.70;;;;;;;19.92;100.00;98856.69;4894481;29;20053;-95
2023/06/04 08:02:30;;;;;;;43.30;20.17;;;;;;;20.22;100.00;98849.28;4899113;29;20055;-92
2023/06/04 08:04:56;;;;;;;38.78;20.05;;;;;;;20.33;100.00;98829.69;4896972;29;20048;-93
2023/06/04 08:07:22;;;;;;;40.50;19.40;;;;;;;20.55;100.00;98845.31;4909703;29;20499;-90
2023/06/04 08:09:48;;;;;;;38.13;18.83;;;;;;;20.80;100.00;98850.00;4898485;29;20407;-92
2023/06/04 08:12:16;;;;;;;36.33;18.00;;;;;;;21.04;100.00;98839.34;4908971;29;20170;-92
2023/06/04 08:14:42;;;;;;;30.13;16.65;;;;;;;21.24;100.00;98840.66;4898486;29;20047;-92
2023/06/04 08:17:09;;;;;;;29.35;15.20;;;;;;;21.33;100.00;98848.09;4902896;29;20046;-92
2023/06/04 08:19:35;;;;;;;32.88;16.85;;;;;;;21.13;100.00;98835.97;4893327;29;20499;-93
2023/06/04 08:22:01;;;;;;;31.80;15.82;;;;;;;20.94;100.00;98846.34;4899787;29;20139;-94
2023/06/04 08:24:26;;;;;;;31.00;14.77;;;;;;;21.31;100.00;98820.28;4907501;29;20103;-90
2023/06/04 08:26:52;;;;;;;29.73;15.52;;;;;;;21.68;100.00;98830.38;4903347;29;20052;-93
2023/06/04 08:29:18;;;;;;;28.30;14.77;;;;;;;21.66;100.00;98849.44;4904532;29;20040;-93
2023/06/04 08:31:44;;;;;;;26.88;15.05;;;;;;;21.54;100.00;98839.50;4894485;29;20047;-92
2023/06/04 08:34:12;;;;;;;24.42;13.50;;;;;;;21.64;100.00;98851.41;4896860;29;20045;-93
2023/06/04 08:36:37;;;;;;;26.88;14.35;;;;;;;21.53;100.00;98852.16;4905614;29;20390;-93
2023/06/04 08:39:03;;;;;;;27.30;13.85;;;;;;;21.43;100.00;98850.22;4893274;29;20135;-93
2023/06/04 08:41:34;;;;;;;30.80;14.05;;;;;;;21.31;100.00;98855.47;4895947;29;20047;-94
2023/06/04 08:44:02;;;;;;;28.25;14.75;;;;;;;21.22;100.00;98833.63;4907035;29;20059;-91
2023/06/04 08:46:29;;;;;;;23.73;13.25;;;;;;;21.73;100.00;98847.19;4896283;29;20059;-91
2023/06/04 08:49:01;;;;;;;24.10;13.68;;;;;;;21.78;100.00;98831.47;4898785;29;20492;-92
2023/06/04 08:51:29;;;;;;;24.90;14.05;;;;;;;22.17;100.00;98832.25;4903803;29;20044;-93
2023/06/04 08:53:57;;;;;;;24.77;13.13;;;;;;;22.18;100.00;98819.56;4890207;29;20051;-93
2023/06/04 08:56:23;;;;;;;25.05;13.15;;;;;;;22.08;100.00;98830.22;4897574;29;20306;-92
2023/06/04 08:58:49;;;;;;;26.55;14.00;;;;;;;22.35;100.00;98836.31;4893655;29;20068;-93
2023/06/04 09:01:17;;;;;;;26.80;12.45;;;;;;;22.46;100.00;98811.13;4892464;29;20056;-94
2023/06/04 09:03:44;;;;;;;24.17;12.83;;;;;;;22.67;99.25;98824.91;4902227;29;20147;-93
2023/06/04 09:06:10;;;;;;;25.27;12.90;;;;;;;22.80;97.01;98823.97;4899033;29;20055;-92
2023/06/04 09:08:43;;;;;;;22.52;12.32;;;;;;;22.98;97.60;98827.97;4899730;29;20415;-92
2023/06/04 09:11:11;;;;;;;24.95;12.38;;;;;;;23.05;93.98;98815.72;4897751;29;20446;-92
2023/06/04 09:13:38;;;;;;;24.67;11.27;;;;;;;22.74;95.27;98809.03;4894381;29;20095;-91
2023/06/04 09:16:06;;;;;;;23.60;13.07;;;;;;;22.93;94.10;98813.91;4889014;29;20398;-92
2023/06/04 09:18:32;;;;;;;24.35;14.43;;;;;;;22.76;94.32;98788.94;4897424;29;20048;-93
2023/06/04 09:21:03;;;;;;;23.58;11.93;;;;;;;23.06;94.52;98800.28;4895610;29;20511;-93
2023/06/04 09:23:28;;;;;;;22.70;11.70;;;;;;;23.48;91.20;98815.03;4904400;29;20062;-91
2023/06/04 09:25:56;;;;;;;20.15;10.93;;;;;;;23.91;90.93;98825.19;4898953;29;20495;-92
2023/06/04 09:28:21;;;;;;;20.45;11.35;;;;;;;23.89;89.03;98827.16;4906460;29;20040;-92
2023/06/04 09:30:52;;;;;;;21.98;11.93;;;;;;;23.58;86.22;98809.75;4897803;29;20108;-92
2023/06/04 09:33:18;;;;;;;21.02;11.48;;;;;;;23.50;87.26;98828.47;4897710;29;20126;-93
2023/06/04 09:35:53;;;;;;;24.45;12.48;;;;;;;23.52;87.35;98826.50;4899818;29;20132;-92
2023/06/04 09:38:19;;;;;;;24.98;12.90;;;;;;;23.03;89.61;98844.81;4891027;29;20048;-91
2023/06/04 09:40:46;;;;;;;22.17;11.55;;;;;;;23.32;91.58;98849.81;4900958;29;20503;-93
2023/06/04 09:43:21;;;;;;;21.63;12.07;;;;;;;23.20;90.43;98842.59;4905580;29;20052;-92
2023/06/04 09:45:47;;;;;;;21.55;11.80;;;;;;;23.33;90.91;98833.41;4900761;29;20154;-93
2023/06/04 09:48:19;;;;;;;23.13;12.30;;;;;;;23.76;90.58;98856.28;4908960;29;20406;-93
2023/06/04 09:50:45;;;;;;;23.70;13.25;;;;;;;23.55;88.70;98840.72;4910088;29;20046;-92
2023/06/04 09:53:15;;;;;;;26.08;13.32;;;;;;;24.21;87.82;98850.84;4900690;29;20527;-92
2023/06/04 09:55:41;;;;;;;22.17;12.18;;;;;;;24.66;85.31;98837.16;4903035;29;20048;-91
2023/06/04 09:58:08;;;;;;;28.83;13.63;;;;;;;24.46;87.10;98833.34;4891686;29;20048;-91
2023/06/04 10:00:36;;;;;;;22.73;13.10;;;;;;;24.78;84.09;98825.22;4901899;29;20100;-92
2023/06/04 10:03:03;;;;;;;22.97;12.80;;;;;;;24.79;86.38;98846.00;4907304;29;20499;-92
2023/06/04 10:05:32;;;;;;;24.30;13.40;;;;;;;24.25;87.15;98846.88;4900341;29;20176;-89
2023/06/04 10:08:02;;;;;;;24.88;13.40;;;;;;;24.27;86.84;98836.75;4910084;29;20035;-91
2023/06/04 10:10:30;;;;;;;25.17;13.23;;;;;;;24.48;85.68;98864.03;4905985;29;20111;-91
2023/06/04 10:13:02;;;;;;;26.98;14.10;;;;;;;24.31;89.21;98859.97;4921212;29;20403;-91
2023/06/04 10:15:30;;;;;;;24.88;13.70;;;;;;;24.02;89.20;98837.03;4897406;29;20127;-93
2023/06/04 10:17:57;;;;;;;25.13;13.27;;;;;;;24.08;89.09;98834.69;4903346;29;20044;-92
2023/06/04 10:20:24;;;;;;;24.77;13.13;;;;;;;24.29;89.04;98842.94;4905724;29;20048;-92
2023/06/04 10:22:50;;;;;;;23.63;14.23;;;;;;;24.29;89.14;98853.78;4900029;29;20060;-93
2023/06/04 10:25:17;;;;;;;25.63;14.65;;;;;;;24.29;89.44;98845.66;4907250;29;20050;-93
2023/06/04 10:27:43;;;;;;;29.10;15.10;;;;;;;24.16;88.07;98826.78;4898139;29;20047;-93
2023/06/04 10:30:10;;;;;;;26.90;14.57;;;;;;;23.61;91.82;98823.06;4907563;29;20056;-94
2023/06/04 10:32:36;;;;;;;25.55;13.05;;;;;;;24.01;90.67;98829.84;4904636;29;20083;-93
2023/06/04 10:35:09;;;;;;;26.60;13.15;;;;;;;24.24;88.30;98822.53;4917213;29;20095;-93
2023/06/04 10:37:35;;;;;;;22.65;13.25;;;;;;;23.93;85.72;98811.47;4902804;29;20041;-94
2023/06/04 10:40:01;;;;;;;25.30;12.90;;;;;;;23.89;85.83;98810.84;4907207;29;20104;-94
2023/06/04 10:42:38;;;;;;;23.48;13.57;;;;;;;24.25;86.63;98819.72;4905013;29;20052;-93
2023/06/04 10:45:05;;;;;;;22.15;12.05;;;;;;;24.56;82.97;98811.75;4907196;29;20561;-93
2023/06/04 10:47:33;;;;;;;20.33;11.73;;;;;;;24.77;77.13;98785.44;4909974;29;20052;-91
2023/06/04 10:50:10;;;;;;;20.05;11.57;;;;;;;25.08;76.56;98785.53;4919493;29;20055;-94
2023/06/04 10:52:36;;;;;;;22.25;13.20;;;;;;;25.01;78.74;98795.22;4911601;29;20379;-93
2023/06/04 10:55:08;;;;;;;28.70;13.25;;;;;;;24.84;79.71;98802.09;4911717;29;20107;-93
2023/06/04 10:57:34;;;;;;;21.35;11.75;;;;;;;24.50;81.40;98785.91;4886046;29;20055;-94
2023/06/04 11:00:03;;;;;;;21.58;13.70;;;;;;;24.78;77.71;98781.72;4885613;29;20052;-93
2023/06/04 11:02:29;;;;;;;28.10;14.35;;;;;;;24.48;77.77;98774.31;4904090;29;20040;-94
2023/06/04 11:05:05;;;;;;;22.02;12.48;;;;;;;24.95;77.22;98768.53;4902660;29;20044;-95
2023/06/04 11:07:43;;;;;;;22.08;12.27;;;;;;;24.60;77.96;98780.59;4907815;29;20070;-95
2023/06/04 11:10:10;;;;;;;26.93;13.77;;;;;;;25.05;76.67;98755.88;4885484;29;20056;-92